createdAt,value
2024-03-12T00:00:05.820Z,94579.00
2024-03-12T00:01:05.983Z,94584.00
2024-03-12T00:02:06.078Z,94588.00
2024-03-12T00:03:06.094Z,94587.00
2024-03-12T00:58:04.464Z,94609.00
2024-03-12T00:59:05.345Z,94607.00
2024-03-12T01:00:05.340Z,94606.00
2024-03-12T01:01:05.447Z,94607.00
2024-03-12T01:02:05.348Z,94609.00
2024-03-12T01:03:05.341Z,94611.00
2024-03-12T01:04:05.443Z,94612.00
2024-03-12T01:05:05.340Z,94614.00
2024-03-12T01:06:05.342Z,94616.00
2024-03-12T01:07:05.381Z,94615.00
2024-03-12T01:08:05.326Z,94613.00
2024-03-12T01:09:05.330Z,94614.00
2024-03-12T01:10:05.381Z,94617.00
2024-03-12T01:11:05.431Z,94618.00
2024-03-12T01:12:05.379Z,94620.00
2024-03-12T01:13:05.506Z,94619.00
2024-03-12T01:14:05.424Z,94619.00
2024-03-12T01:15:05.391Z,94619.00
2024-03-12T01:16:05.418Z,94620.00
2024-03-12T01:17:05.451Z,94622.00
2024-03-12T01:18:05.741Z,94624.00
2024-03-12T01:19:05.397Z,94624.00
2024-03-12T01:20:05.391Z,94626.00
2024-03-12T01:21:05.391Z,94625.00
2024-03-12T01:22:17.158Z,94624.00
2024-03-12T01:23:18.193Z,94622.00
2024-03-12T01:24:18.223Z,94621.00
2024-03-12T01:25:18.272Z,94620.00
2024-03-12T01:26:18.307Z,94615.00
2024-03-12T01:27:18.359Z,94617.00
2024-03-12T01:28:18.432Z,94616.00
2024-03-12T01:29:18.513Z,94618.00
2024-03-12T01:30:18.506Z,94620.00
2024-03-12T01:31:18.504Z,94621.00
2024-03-12T01:32:18.526Z,94621.00
2024-03-12T01:33:18.650Z,94623.00
2024-03-12T01:34:18.618Z,94623.00
2024-03-12T01:35:18.652Z,94623.00
2024-03-12T01:36:18.693Z,94626.00
2024-03-12T01:37:18.722Z,94625.00
2024-03-12T01:38:18.769Z,94626.00
2024-03-12T01:39:18.796Z,94627.00
2024-03-12T01:40:18.884Z,94627.00
2024-03-12T01:41:18.944Z,94630.00
2024-03-12T01:42:18.949Z,94630.00
2024-03-12T01:43:19.025Z,94631.00
2024-03-12T01:44:19.013Z,94632.00
2024-03-12T01:45:19.091Z,94632.00
2024-03-12T01:46:19.123Z,94633.00
2024-03-12T01:47:19.262Z,94632.00
2024-03-12T01:48:19.369Z,94632.00
2024-03-12T01:49:19.494Z,94631.00
2024-03-12T01:50:19.681Z,94632.00
2024-03-12T01:51:19.759Z,94634.00
2024-03-12T01:52:19.873Z,94636.00
2024-03-12T01:53:20.020Z,94636.00
2024-03-12T01:54:20.168Z,94638.00
2024-03-12T01:55:20.252Z,94640.00
2024-03-12T01:56:20.397Z,94640.00
2024-03-12T01:57:20.519Z,94644.00
2024-03-12T01:58:20.641Z,94645.00
2024-03-12T01:59:20.768Z,94650.00
2024-03-12T02:00:20.924Z,94650.00
2024-03-12T02:01:21.314Z,94653.00
2024-03-12T02:02:21.144Z,94655.00
2024-03-12T02:03:21.276Z,94656.00
2024-03-12T02:04:21.388Z,94658.00
2024-03-12T02:05:22.249Z,94661.00
2024-03-12T02:06:21.594Z,94664.00
2024-03-12T02:07:21.644Z,94668.00
2024-03-12T02:08:21.734Z,94669.00
2024-03-12T02:09:21.831Z,94671.00
2024-03-12T02:10:21.908Z,94672.00
2024-03-12T02:11:21.997Z,94671.00
2024-03-12T02:12:22.194Z,94671.00
2024-03-12T02:13:22.266Z,94672.00
2024-03-12T02:14:22.198Z,94670.00
2024-03-12T02:15:22.473Z,94673.00
2024-03-12T02:16:22.461Z,94672.00
2024-03-12T02:17:22.510Z,94674.00
2024-03-12T02:18:22.663Z,94674.00
2024-03-12T02:19:22.766Z,94672.00
2024-03-12T02:20:23.517Z,94676.00
2024-03-12T02:21:22.989Z,94676.00
2024-03-12T02:22:23.027Z,94678.00
2024-03-12T02:23:23.105Z,94679.00
2024-03-12T02:24:25.855Z,94679.00
2024-03-12T02:25:23.504Z,94680.00
2024-03-12T02:26:23.255Z,94680.00
2024-03-12T02:27:23.387Z,94680.00
2024-03-12T02:28:23.311Z,94679.00
2024-03-12T02:29:23.355Z,94684.00
2024-03-12T02:30:23.499Z,94684.00
2024-03-12T02:31:23.477Z,94685.00
2024-03-12T02:32:23.525Z,94685.00
2024-03-12T02:33:23.521Z,94685.00
2024-03-12T02:34:23.531Z,94687.00
2024-03-12T02:35:23.566Z,94688.00
2024-03-12T02:36:23.656Z,94687.00
2024-03-12T02:37:23.628Z,94688.00
2024-03-12T02:38:23.678Z,94688.00
2024-03-12T02:39:23.767Z,94688.00
2024-03-12T02:40:23.834Z,94690.00
2024-03-12T02:41:23.790Z,94690.00
2024-03-12T02:42:53.860Z,94687.00
2024-03-12T02:43:54.838Z,94691.00
2024-03-12T02:44:54.846Z,94692.00
2024-03-12T02:45:54.907Z,94691.00
2024-03-12T02:46:54.868Z,94692.00
2024-03-12T02:47:55.021Z,94693.00
2024-03-12T02:48:54.986Z,94694.00
2024-03-12T02:49:54.906Z,94696.00
2024-03-12T02:50:54.904Z,94697.00
2024-03-12T02:51:54.967Z,94697.00
2024-03-12T02:52:54.916Z,94696.00
2024-03-12T02:53:54.926Z,94696.00
2024-03-12T02:54:54.969Z,94697.00
2024-03-12T02:55:54.918Z,94697.00
2024-03-12T02:56:54.904Z,94695.00
2024-03-12T02:57:55.003Z,94696.00
2024-03-12T02:58:54.900Z,94693.00
2024-03-12T02:59:54.920Z,94695.00
2024-03-12T03:00:54.999Z,94694.00
2024-03-12T03:01:54.975Z,94694.00
2024-03-12T03:02:54.898Z,94692.00
2024-03-12T03:03:54.985Z,94692.00
2024-03-12T03:04:54.892Z,94692.00
2024-03-12T03:05:54.883Z,94693.00
2024-03-12T03:06:54.933Z,94694.00
2024-03-12T03:07:54.887Z,94692.00
2024-03-12T03:08:54.870Z,94695.00
2024-03-12T03:09:54.943Z,94695.00
2024-03-12T03:10:55.037Z,94698.00
2024-03-12T03:11:55.124Z,94696.00
2024-03-12T03:12:55.260Z,94695.00
2024-03-12T03:13:55.236Z,94697.00
2024-03-12T03:14:55.326Z,94697.00
2024-03-12T03:15:55.506Z,94700.00
2024-03-12T03:16:55.660Z,94699.00
2024-03-12T03:17:55.720Z,94702.00
2024-03-12T03:18:55.740Z,94700.00
2024-03-12T03:19:55.884Z,94701.00
2024-03-12T03:20:55.870Z,94701.00
2024-03-12T03:21:55.976Z,94700.00
2024-03-12T03:22:55.927Z,94698.00
2024-03-12T03:23:55.953Z,94699.00
2024-03-12T03:24:56.004Z,94697.00
2024-03-12T03:25:56.027Z,94697.00
2024-03-12T03:26:56.079Z,94699.00
2024-03-12T03:27:56.204Z,94698.00
2024-03-12T03:28:56.297Z,94698.00
2024-03-12T03:29:56.399Z,94700.00
2024-03-12T03:30:56.552Z,94701.00
2024-03-12T03:31:56.606Z,94700.00
2024-03-12T03:32:56.753Z,94700.00
2024-03-12T03:33:56.884Z,94701.00
2024-03-12T03:34:56.920Z,94701.00
2024-03-12T03:35:57.079Z,94703.00
2024-03-12T03:36:57.252Z,94703.00
2024-03-12T03:37:57.224Z,94705.00
2024-03-12T03:38:57.315Z,94705.00
2024-03-12T03:39:57.453Z,94704.00
2024-03-12T03:40:57.576Z,94704.00
2024-03-12T03:41:57.743Z,94704.00
2024-03-12T03:42:58.146Z,94705.00
2024-03-12T03:43:57.837Z,94705.00
2024-03-12T03:44:57.884Z,94707.00
2024-03-12T03:45:57.949Z,94711.00
2024-03-12T03:46:57.924Z,94711.00
2024-03-12T03:47:57.998Z,94713.00
2024-03-12T03:48:58.579Z,94712.00
2024-03-12T03:49:58.019Z,94716.00
2024-03-12T03:50:58.038Z,94715.00
2024-03-12T03:51:58.135Z,94715.00
2024-03-12T03:52:58.097Z,94715.00
2024-03-12T03:53:58.169Z,94714.00
2024-03-12T03:54:58.296Z,94716.00
2024-03-12T03:55:58.192Z,94718.00
2024-03-12T03:56:58.235Z,94717.00
2024-03-12T03:57:58.393Z,94720.00
2024-03-12T03:58:58.406Z,94724.00
2024-03-12T03:59:58.513Z,94726.00
2024-03-12T04:00:59.048Z,94729.00
2024-03-12T04:01:58.656Z,94728.00
2024-03-12T04:02:58.643Z,94725.00
2024-03-12T04:03:58.684Z,94726.00
2024-03-12T04:04:58.702Z,94726.00
2024-03-12T04:05:58.742Z,94728.00
2024-03-12T04:06:58.788Z,94728.00
2024-03-12T04:07:58.850Z,94728.00
2024-03-12T04:08:59.017Z,94733.00
2024-03-12T04:09:58.998Z,94732.00
2024-03-12T04:10:59.070Z,94735.00
2024-03-12T04:12:00.012Z,94737.00
2024-03-12T04:12:59.280Z,94739.00
2024-03-12T04:13:59.203Z,94742.00
2024-03-12T04:14:59.248Z,94745.00
2024-03-12T04:15:59.306Z,94746.00
2024-03-12T04:16:59.301Z,94747.00
2024-03-12T04:17:59.422Z,94748.00
2024-03-12T04:18:59.434Z,94750.00
2024-03-12T04:20:00.031Z,94753.00
2024-03-12T04:20:59.443Z,94754.00
2024-03-12T04:22:00.103Z,94757.00
2024-03-12T04:23:00.052Z,94757.00
2024-03-12T04:24:00.606Z,94758.00
2024-03-12T04:24:59.555Z,94757.00
2024-03-12T04:25:59.607Z,94756.00
2024-03-12T04:27:02.519Z,94757.00
2024-03-12T04:28:00.729Z,94757.00
2024-03-12T04:28:59.603Z,94757.00
2024-03-12T04:29:59.606Z,94758.00
2024-03-12T04:31:07.262Z,94761.00
2024-03-12T04:32:08.809Z,94764.00
2024-03-12T04:33:08.273Z,94767.00
2024-03-12T04:34:08.249Z,94771.00
2024-03-12T04:35:08.168Z,94773.00
2024-03-12T04:36:08.261Z,94774.00
2024-03-12T04:37:08.297Z,94776.00
2024-03-12T04:38:08.188Z,94778.00
2024-03-12T04:39:08.259Z,94778.00
2024-03-12T04:40:08.639Z,94778.00
2024-03-12T04:41:08.813Z,94778.00
2024-03-12T04:42:08.242Z,94780.00
2024-03-12T04:43:08.321Z,94782.00
2024-03-12T04:44:08.241Z,94782.00
2024-03-12T04:45:08.798Z,94781.00
2024-03-12T04:46:08.347Z,94780.00
2024-03-12T04:47:08.270Z,94780.00
2024-03-12T04:48:08.307Z,94785.00
2024-03-12T04:49:08.391Z,94790.00
2024-03-12T04:50:08.367Z,94796.00
2024-03-12T04:51:08.458Z,94795.00
2024-03-12T04:52:08.603Z,94797.00
2024-03-12T04:53:08.644Z,94799.00
2024-03-12T04:54:08.763Z,94801.00
2024-03-12T04:55:08.950Z,94801.00
2024-03-12T04:56:08.926Z,94805.00
2024-03-12T04:57:09.016Z,94809.00
2024-03-12T04:58:09.309Z,94810.00
2024-03-12T04:59:09.229Z,94810.00
2024-03-12T05:00:09.320Z,94810.00
2024-03-12T05:01:09.479Z,94809.00
2024-03-12T05:02:09.576Z,94812.00
2024-03-12T05:03:09.540Z,94815.00
2024-03-12T05:04:15.755Z,94816.00
2024-03-12T05:05:09.599Z,94817.00
2024-03-12T05:06:09.595Z,94815.00
2024-03-12T05:07:09.889Z,94815.00
2024-03-12T05:08:09.688Z,94821.00
2024-03-12T05:09:09.647Z,94821.00
2024-03-12T05:10:09.746Z,94818.00
2024-03-12T05:11:09.848Z,94819.00
2024-03-12T05:12:09.637Z,94819.00
2024-03-12T05:13:09.834Z,94818.00
2024-03-12T05:14:09.658Z,94817.00
2024-03-12T05:15:09.733Z,94815.00
2024-03-12T05:16:09.877Z,94815.00
2024-03-12T05:17:09.738Z,94816.00
2024-03-12T05:18:09.805Z,94817.00
2024-03-12T05:19:09.798Z,94816.00
2024-03-12T05:20:09.812Z,94817.00
2024-03-12T05:21:09.793Z,94816.00
2024-03-12T05:22:09.859Z,94816.00
2024-03-12T05:23:09.729Z,94816.00
2024-03-12T05:24:09.765Z,94818.00
2024-03-12T05:25:09.790Z,94818.00
2024-03-12T05:26:09.852Z,94818.00
2024-03-12T05:27:09.775Z,94820.00
2024-03-12T05:28:10.189Z,94817.00
2024-03-12T05:29:09.865Z,94816.00
2024-03-12T05:30:09.967Z,94816.00
2024-03-12T05:31:09.968Z,94818.00
2024-03-12T05:32:09.899Z,94821.00
2024-03-12T05:33:09.968Z,94822.00
2024-03-12T05:34:09.957Z,94822.00
2024-03-12T05:35:10.029Z,94825.00
2024-03-12T05:36:10.130Z,94824.00
2024-03-12T05:37:10.281Z,94826.00
2024-03-12T05:38:10.325Z,94826.00
2024-03-12T05:39:10.412Z,94825.00
2024-03-12T05:40:10.613Z,94828.00
2024-03-12T05:41:10.604Z,94829.00
2024-03-12T05:42:10.714Z,94830.00
2024-03-12T05:43:10.940Z,94832.00
2024-03-12T05:44:10.903Z,94826.00
2024-03-12T05:45:11.015Z,94829.00
2024-03-12T05:46:11.232Z,94829.00
2024-03-12T05:47:11.150Z,94834.00
2024-03-12T05:48:11.929Z,94835.00
2024-03-12T05:49:11.454Z,94836.00
2024-03-12T05:50:11.250Z,94838.00
2024-03-12T05:51:11.296Z,94839.00
2024-03-12T05:52:11.442Z,94840.00
2024-03-12T05:53:11.598Z,94837.00
2024-03-12T05:54:11.604Z,94837.00
2024-03-12T05:55:11.772Z,94838.00
2024-03-12T05:56:14.324Z,94840.00
2024-03-12T05:57:11.792Z,94847.00
2024-03-12T05:58:11.844Z,94849.00
2024-03-12T05:59:11.874Z,94850.00
2024-03-12T06:00:11.868Z,94849.00
2024-03-12T06:01:12.058Z,94851.00
2024-03-12T06:02:11.971Z,94854.00
2024-03-12T06:03:11.959Z,94855.00
2024-03-12T06:04:12.088Z,94857.00
2024-03-12T06:05:12.025Z,94858.00
2024-03-12T06:06:12.070Z,94863.00
2024-03-12T06:07:12.148Z,94863.00
2024-03-12T06:08:12.117Z,94861.00
2024-03-12T06:09:12.153Z,94864.00
2024-03-12T06:10:12.345Z,94862.00
2024-03-12T06:11:12.357Z,94864.00
2024-03-12T06:12:12.339Z,94867.00
2024-03-12T06:13:12.361Z,94874.00
2024-03-12T06:14:12.392Z,94874.00
2024-03-12T06:15:12.452Z,94873.00
2024-03-12T06:16:12.658Z,94879.00
2024-03-12T06:17:12.476Z,94882.00
2024-03-12T06:18:12.551Z,94888.00
2024-03-12T06:19:12.664Z,94890.00
2024-03-12T06:20:12.706Z,94891.00
2024-03-12T06:21:12.782Z,94889.00
2024-03-12T06:22:12.942Z,94891.00
2024-03-12T06:23:12.864Z,94890.00
2024-03-12T06:24:12.883Z,94890.00
2024-03-12T06:25:12.987Z,94892.00
2024-03-12T06:26:12.964Z,94898.00
2024-03-12T06:27:12.982Z,94900.00
2024-03-12T06:28:13.102Z,94904.00
2024-03-12T06:29:13.056Z,94907.00
2024-03-12T06:30:13.094Z,94908.00
2024-03-12T06:31:13.299Z,94911.00
2024-03-12T06:32:13.155Z,94914.00
2024-03-12T06:33:13.685Z,94913.00
2024-03-12T06:34:13.318Z,94912.00
2024-03-12T06:35:13.278Z,94917.00
2024-03-12T06:36:13.317Z,94916.00
2024-03-12T06:37:13.359Z,94915.00
2024-03-12T06:38:13.368Z,94916.00
2024-03-12T06:39:13.409Z,94919.00
2024-03-12T06:40:13.550Z,94922.00
2024-03-12T06:41:13.519Z,94924.00
2024-03-12T06:42:13.910Z,94924.00
2024-03-12T06:43:13.737Z,94923.00
2024-03-12T06:44:13.794Z,94922.00
2024-03-12T06:45:13.929Z,94925.00
2024-03-12T06:46:14.515Z,94921.00
2024-03-12T06:47:14.045Z,94917.00
2024-03-12T06:48:14.130Z,94920.00
2024-03-12T06:49:14.091Z,94925.00
2024-03-12T06:50:14.060Z,94924.00
2024-03-12T06:51:14.075Z,94927.00
2024-03-12T06:52:14.159Z,94926.00
2024-03-12T06:53:14.201Z,94927.00
2024-03-12T06:54:14.413Z,94926.00
2024-03-12T06:55:17.187Z,94924.00
2024-03-12T06:56:14.374Z,94923.00
2024-03-12T06:57:14.399Z,94923.00
2024-03-12T06:58:14.439Z,94923.00
2024-03-12T06:59:14.365Z,94928.00
2024-03-12T07:00:14.894Z,94934.00
2024-03-12T07:01:14.565Z,94936.00
2024-03-12T07:02:14.392Z,94937.00
2024-03-12T07:03:17.605Z,94935.00
2024-03-12T07:04:14.940Z,94936.00
2024-03-12T07:05:21.784Z,94936.00
2024-03-12T07:06:14.378Z,94936.00
2024-03-12T07:07:14.539Z,94937.00
2024-03-12T07:08:14.415Z,94939.00
2024-03-12T07:09:15.873Z,94942.00
2024-03-12T07:10:14.662Z,94940.00
2024-03-12T07:11:14.544Z,94941.00
2024-03-12T07:12:15.389Z,94942.00
2024-03-12T07:13:14.993Z,94946.00
2024-03-12T07:14:14.911Z,94948.00
2024-03-12T07:15:15.661Z,94951.00
2024-03-12T07:16:14.816Z,94952.00
2024-03-12T07:17:14.750Z,94953.00
2024-03-12T07:18:14.854Z,94953.00
2024-03-12T07:19:14.940Z,94954.00
2024-03-12T07:20:14.834Z,94955.00
2024-03-12T07:21:14.883Z,94955.00
2024-03-12T07:22:14.962Z,94955.00
2024-03-12T07:23:15.389Z,94954.00
2024-03-12T07:24:15.082Z,94954.00
2024-03-12T07:25:15.257Z,94954.00
2024-03-12T07:26:15.438Z,94952.00
2024-03-12T07:27:15.322Z,94955.00
2024-03-12T07:28:15.515Z,94958.00
2024-03-12T07:29:15.910Z,94961.00
2024-03-12T07:30:18.742Z,94964.00
2024-03-12T07:31:15.567Z,94968.00
2024-03-12T07:32:15.507Z,94965.00
2024-03-12T07:33:15.584Z,94968.00
2024-03-12T07:34:18.234Z,94971.00
2024-03-12T07:35:15.495Z,94975.00
2024-03-12T07:36:15.426Z,94973.00
2024-03-12T07:37:15.667Z,94971.00
2024-03-12T07:38:15.401Z,94970.00
2024-03-12T07:39:15.393Z,94966.00
2024-03-12T07:40:15.505Z,94964.00
2024-03-12T07:41:15.681Z,94965.00
2024-03-12T07:42:15.632Z,94966.00
2024-03-12T07:43:15.424Z,94969.00
2024-03-12T07:44:15.281Z,94970.00
2024-03-12T07:45:15.261Z,94974.00
2024-03-12T07:46:15.341Z,94975.00
2024-03-12T07:47:15.404Z,94976.00
2024-03-12T07:48:15.231Z,94975.00
2024-03-12T07:49:16.498Z,94974.00
2024-03-12T07:50:15.408Z,94975.00
2024-03-12T07:51:15.241Z,94974.00
2024-03-12T07:52:15.223Z,94978.00
2024-03-12T07:53:15.278Z,94977.00
2024-03-12T07:54:15.369Z,94974.00
2024-03-12T07:55:15.601Z,94975.00
2024-03-12T07:56:15.570Z,94974.00
2024-03-12T07:57:17.569Z,94974.00
2024-03-12T07:58:15.659Z,94975.00
2024-03-12T07:59:19.115Z,94976.00
2024-03-12T08:00:16.370Z,94978.00
2024-03-12T08:01:15.724Z,94977.00
2024-03-12T08:02:15.552Z,94978.00
2024-03-12T08:03:15.539Z,94981.00
2024-03-12T08:04:15.632Z,94979.00
2024-03-12T08:05:16.406Z,94982.00
2024-03-12T08:06:15.479Z,94982.00
2024-03-12T08:07:15.604Z,94985.00
2024-03-12T08:08:15.445Z,94982.00
2024-03-12T08:09:15.445Z,94984.00
2024-03-12T08:10:15.450Z,94984.00
2024-03-12T08:11:15.442Z,94987.00
2024-03-12T08:12:17.786Z,94988.00
2024-03-12T08:13:15.481Z,94988.00
2024-03-12T08:14:15.459Z,94987.00
2024-03-12T08:15:15.902Z,94988.00
2024-03-12T08:16:15.447Z,94986.00
2024-03-12T08:17:15.370Z,94987.00
2024-03-12T08:18:20.772Z,94988.00
2024-03-12T08:19:15.529Z,94988.00
2024-03-12T08:20:15.293Z,94987.00
2024-03-12T08:21:15.273Z,94988.00
2024-03-12T08:22:15.429Z,94986.00
2024-03-12T08:23:15.300Z,94990.00
2024-03-12T08:24:15.243Z,94992.00
2024-03-12T08:25:16.247Z,94994.00
2024-03-12T08:26:15.200Z,94993.00
2024-03-12T08:27:15.156Z,94995.00
2024-03-12T08:28:16.100Z,94994.00
2024-03-12T08:29:15.121Z,94995.00
2024-03-12T08:30:15.092Z,94998.00
2024-03-12T08:31:24.779Z,94997.00
2024-03-12T08:32:15.061Z,94990.00
2024-03-12T08:33:16.061Z,94993.00
2024-03-12T08:34:15.086Z,94992.00
2024-03-12T08:35:14.988Z,94993.00
2024-03-12T08:36:14.989Z,94996.00
2024-03-12T08:37:15.081Z,94995.00
2024-03-12T08:38:15.004Z,94998.00
2024-03-12T08:39:15.070Z,94997.00
2024-03-12T08:40:15.148Z,94999.00
2024-03-12T08:41:15.058Z,95002.00
2024-03-12T08:42:15.074Z,95006.00
2024-03-12T08:43:15.974Z,95010.00
2024-03-12T08:44:15.286Z,95013.00
2024-03-12T08:45:15.217Z,95013.00
2024-03-12T08:46:15.268Z,95010.00
2024-03-12T08:47:15.284Z,95015.00
2024-03-12T08:48:15.391Z,95018.00
2024-03-12T08:49:15.409Z,95019.00
2024-03-12T08:50:15.698Z,95017.00
2024-03-12T08:51:15.721Z,95016.00
2024-03-12T08:52:15.828Z,95020.00
2024-03-12T08:53:16.514Z,95019.00
2024-03-12T08:54:15.965Z,95023.00
2024-03-12T08:55:16.053Z,95023.00
2024-03-12T08:56:15.749Z,95023.00
2024-03-12T08:57:15.933Z,95021.00
2024-03-12T08:58:16.007Z,95020.00
2024-03-12T08:59:15.985Z,95017.00
2024-03-12T09:00:16.075Z,95019.00
2024-03-12T09:01:16.391Z,95015.00
2024-03-12T09:02:16.286Z,95014.00
2024-03-12T09:03:16.347Z,95013.00
2024-03-12T09:04:16.431Z,95013.00
2024-03-12T09:05:16.449Z,95015.00
2024-03-12T09:06:16.481Z,95020.00
2024-03-12T09:07:16.596Z,95020.00
2024-03-12T09:08:16.757Z,95018.00
2024-03-12T09:09:16.768Z,95020.00
2024-03-12T09:10:16.998Z,95022.00
2024-03-12T09:11:16.784Z,95025.00
2024-03-12T09:12:16.732Z,95024.00
2024-03-12T09:13:16.818Z,95025.00
2024-03-12T09:14:16.824Z,95027.00
2024-03-12T09:15:16.865Z,95027.00
2024-03-12T09:16:16.931Z,95026.00
2024-03-12T09:17:16.977Z,95029.00
2024-03-12T09:18:17.053Z,95031.00
2024-03-12T09:19:17.122Z,95033.00
2024-03-12T09:20:17.245Z,95032.00
2024-03-12T09:21:17.465Z,95032.00
2024-03-12T09:22:17.371Z,95033.00
2024-03-12T09:23:17.289Z,95032.00
2024-03-12T09:24:17.342Z,95034.00
2024-03-12T09:25:19.687Z,95033.00
2024-03-12T09:26:17.439Z,95033.00
2024-03-12T09:27:17.385Z,95034.00
2024-03-12T09:28:17.729Z,95030.00
2024-03-12T09:29:17.309Z,95031.00
2024-03-12T09:30:17.267Z,95030.00
2024-03-12T09:31:17.273Z,95031.00
2024-03-12T09:32:17.230Z,95031.00
2024-03-12T09:33:17.300Z,95032.00
2024-03-12T09:34:17.310Z,95032.00
2024-03-12T09:35:17.166Z,95033.00
2024-03-12T09:36:17.155Z,95030.00
2024-03-12T09:37:17.238Z,95029.00
2024-03-12T09:38:17.448Z,95026.00
2024-03-12T09:39:17.097Z,95024.00
2024-03-12T09:40:17.234Z,95025.00
2024-03-12T09:41:17.039Z,95025.00
2024-03-12T09:42:17.037Z,95026.00
2024-03-12T09:43:17.571Z,95027.00
2024-03-12T09:44:17.044Z,95030.00
2024-03-12T09:45:18.062Z,95030.00
2024-03-12T09:46:17.032Z,95030.00
2024-03-12T09:47:16.967Z,95031.00
2024-03-12T09:48:18.303Z,95029.00
2024-03-12T09:49:17.003Z,95031.00
2024-03-12T09:50:16.892Z,95030.00
2024-03-12T09:51:16.930Z,95029.00
2024-03-12T09:52:16.891Z,95028.00
2024-03-12T09:53:16.856Z,95029.00
2024-03-12T09:54:16.837Z,95030.00
2024-03-12T09:55:17.235Z,95029.00
2024-03-12T09:56:16.884Z,95031.00
2024-03-12T09:57:16.882Z,95031.00
2024-03-12T09:58:16.952Z,95030.00
2024-03-12T09:59:16.983Z,95029.00
2024-03-12T10:00:16.940Z,95031.00
2024-03-12T10:01:17.028Z,95030.00
2024-03-12T10:02:16.988Z,95030.00
2024-03-12T10:03:16.989Z,95027.00
2024-03-12T10:04:16.989Z,95026.00
2024-03-12T10:05:16.999Z,95024.00
2024-03-12T10:06:17.021Z,95025.00
2024-03-12T10:07:17.072Z,95024.00
2024-03-12T10:08:17.083Z,95021.00
2024-03-12T10:09:17.115Z,95024.00
2024-03-12T10:10:17.599Z,95024.00
2024-03-12T10:11:17.201Z,95023.00
2024-03-12T10:12:17.155Z,95022.00
2024-03-12T10:13:17.922Z,95022.00
2024-03-12T10:14:17.171Z,95024.00
2024-03-12T10:15:17.219Z,95021.00
2024-03-12T10:16:17.249Z,95020.00
2024-03-12T10:17:17.228Z,95023.00
2024-03-12T10:18:17.203Z,95019.00
2024-03-12T10:19:17.998Z,95019.00
2024-03-12T10:20:17.735Z,95017.00
2024-03-12T10:21:17.215Z,95017.00
2024-03-12T10:22:17.248Z,95015.00
2024-03-12T10:23:17.219Z,95016.00
2024-03-12T10:24:17.458Z,95016.00
2024-03-12T10:25:17.227Z,95015.00
2024-03-12T10:26:17.784Z,95020.00
2024-03-12T10:27:17.222Z,95019.00
2024-03-12T10:28:17.252Z,95017.00
2024-03-12T10:29:17.215Z,95019.00
2024-03-12T10:30:17.491Z,95018.00
2024-03-12T10:31:17.439Z,95018.00
2024-03-12T10:32:17.266Z,95021.00
2024-03-12T10:33:17.309Z,95021.00
2024-03-12T10:34:17.396Z,95023.00
2024-03-12T10:35:17.363Z,95023.00
2024-03-12T10:36:17.431Z,95022.00
2024-03-12T10:37:17.508Z,95022.00
2024-03-12T10:38:17.532Z,95022.00
2024-03-12T10:39:18.573Z,95022.00
2024-03-12T10:40:18.235Z,95020.00
2024-03-12T10:41:17.797Z,95017.00
2024-03-12T10:42:17.597Z,95016.00
2024-03-12T10:43:17.757Z,95012.00
2024-03-12T10:44:17.732Z,95009.00
2024-03-12T10:45:18.093Z,95009.00
2024-03-12T10:46:17.969Z,95008.00
2024-03-12T10:47:18.028Z,95004.00
2024-03-12T10:48:18.105Z,95004.00
2024-03-12T10:49:18.198Z,95006.00
2024-03-12T10:50:18.498Z,95008.00
2024-03-12T10:51:18.309Z,95011.00
2024-03-12T10:52:18.471Z,95012.00
2024-03-12T10:53:18.442Z,95007.00
2024-03-12T10:54:18.677Z,95008.00
2024-03-12T10:55:18.582Z,95008.00
2024-03-12T10:56:19.037Z,95009.00
2024-03-12T10:57:18.559Z,95009.00
2024-03-12T10:58:18.628Z,95011.00
2024-03-12T10:59:18.600Z,95011.00
2024-03-12T11:00:18.598Z,95013.00
2024-03-12T11:01:18.971Z,95011.00
2024-03-12T11:02:18.636Z,95011.00
2024-03-12T11:03:18.754Z,95012.00
2024-03-12T11:04:18.669Z,95014.00
2024-03-12T11:05:18.582Z,95013.00
2024-03-12T11:06:19.561Z,95013.00
2024-03-12T11:07:18.614Z,95015.00
2024-03-12T11:08:18.564Z,95014.00
2024-03-12T11:09:18.546Z,95012.00
2024-03-12T11:10:18.637Z,95010.00
2024-03-12T11:11:18.598Z,95013.00
2024-03-12T11:12:18.560Z,95008.00
2024-03-12T11:13:18.626Z,95006.00
2024-03-12T11:14:18.531Z,95007.00
2024-03-12T11:15:18.618Z,95002.00
2024-03-12T11:16:19.106Z,95000.00
2024-03-12T11:17:18.616Z,95000.00
2024-03-12T11:18:18.697Z,95001.00
2024-03-12T11:19:18.836Z,95001.00
2024-03-12T11:20:18.684Z,95003.00
2024-03-12T11:21:18.702Z,95002.00
2024-03-12T11:22:19.009Z,95001.00
2024-03-12T11:23:18.816Z,95002.00
2024-03-12T11:24:18.837Z,95004.00
2024-03-12T11:25:18.947Z,95001.00
2024-03-12T11:26:18.953Z,95001.00
2024-03-12T11:27:19.017Z,95002.00
2024-03-12T11:28:19.042Z,95001.00
2024-03-12T11:29:19.084Z,95003.00
2024-03-12T11:30:19.508Z,95001.00
2024-03-12T11:31:19.256Z,95004.00
2024-03-12T11:32:19.208Z,95000.00
2024-03-12T11:33:19.253Z,94999.00
2024-03-12T11:34:19.358Z,94998.00
2024-03-12T11:35:19.650Z,94995.00
2024-03-12T11:36:19.470Z,94995.00
2024-03-12T11:37:19.592Z,94996.00
2024-03-12T11:38:19.642Z,94993.00
2024-03-12T11:39:19.798Z,94994.00
2024-03-12T11:40:20.002Z,94991.00
2024-03-12T11:41:19.895Z,94992.00
2024-03-12T11:42:20.001Z,94990.00
2024-03-12T11:43:20.060Z,94990.00
2024-03-12T11:44:20.127Z,94988.00
2024-03-12T11:45:20.397Z,94989.00
2024-03-12T11:46:20.326Z,94988.00
2024-03-12T11:47:20.370Z,94987.00
2024-03-12T11:48:20.436Z,94988.00
2024-03-12T11:49:20.506Z,94989.00
2024-03-12T11:50:22.072Z,94990.00
2024-03-12T11:51:20.700Z,94991.00
2024-03-12T11:52:20.749Z,94992.00
2024-03-12T11:53:20.780Z,94991.00
2024-03-12T11:54:20.790Z,94993.00
2024-03-12T11:55:20.837Z,94994.00
2024-03-12T11:56:20.847Z,94993.00
2024-03-12T11:57:20.857Z,94993.00
2024-03-12T11:58:20.922Z,94990.00
2024-03-12T11:59:20.907Z,94990.00
2024-03-12T12:00:20.968Z,94991.00
2024-03-12T12:01:21.256Z,94990.00
2024-03-12T12:02:21.097Z,94988.00
2024-03-12T12:03:21.200Z,94992.00
2024-03-12T12:04:21.307Z,94992.00
2024-03-12T12:05:21.304Z,94992.00
2024-03-12T12:06:21.415Z,94996.00
2024-03-12T12:07:21.421Z,94995.00
2024-03-12T12:08:21.445Z,94996.00
2024-03-12T12:09:21.514Z,94997.00
2024-03-12T12:10:22.114Z,94999.00
2024-03-12T12:11:21.579Z,94997.00
2024-03-12T12:12:21.814Z,95000.00
2024-03-12T12:13:21.513Z,94998.00
2024-03-12T12:14:21.511Z,94999.00
2024-03-12T12:15:22.015Z,95001.00
2024-03-12T12:16:22.070Z,94999.00
2024-03-12T12:17:21.707Z,95001.00
2024-03-12T12:18:21.783Z,95000.00
2024-03-12T12:19:25.612Z,95001.00
2024-03-12T12:20:22.021Z,95002.00
2024-03-12T12:21:21.832Z,95001.00
2024-03-12T12:22:21.867Z,95003.00
2024-03-12T12:23:21.750Z,95006.00
2024-03-12T12:24:21.701Z,95004.00
2024-03-12T12:25:22.137Z,95006.00
2024-03-12T12:26:21.711Z,95005.00
2024-03-12T12:27:21.586Z,95008.00
2024-03-12T12:28:21.616Z,95006.00
2024-03-12T12:29:21.572Z,95003.00
2024-03-12T12:30:21.552Z,95000.00
2024-03-12T12:31:21.600Z,95002.00
2024-03-12T12:32:21.479Z,95004.00
2024-03-12T12:33:21.428Z,95003.00
2024-03-12T12:34:21.473Z,95003.00
2024-03-12T12:35:22.043Z,95001.00
2024-03-12T12:36:21.374Z,95000.00
2024-03-12T12:37:21.424Z,95000.00
2024-03-12T12:38:21.374Z,95000.00
2024-03-12T12:39:21.595Z,95001.00